createdAt,value
2017-09-04T00:01:37.981Z,10.30
2017-09-04T00:04:05.766Z,10.30
2017-09-04T00:06:33.443Z,10.20
2017-09-04T00:09:01.086Z,10.20
2017-09-04T00:11:28.716Z,10.10
2017-09-04T00:13:56.429Z,10.10
2017-09-04T00:16:24.066Z,10.10
2017-09-04T00:18:51.707Z,10.10
2017-09-04T00:21:19.366Z,10.00
2017-09-04T00:23:46.999Z,10.00
2017-09-04T00:26:14.633Z,9.90
2017-09-04T00:28:42.299Z,9.90
2017-09-04T00:31:09.936Z,9.90
2017-09-04T00:33:37.560Z,9.80
2017-09-04T00:36:05.270Z,9.80
2017-09-04T00:38:32.905Z,9.70
2017-09-04T00:41:00.525Z,9.60
2017-09-04T00:43:28.198Z,9.60
2017-09-04T00:45:55.828Z,9.50
2017-09-04T00:48:23.445Z,9.50
2017-09-04T00:50:51.100Z,9.50
2017-09-04T00:53:18.740Z,9.50
2017-09-04T00:55:46.356Z,9.40
2017-09-04T00:58:14.024Z,9.40
2017-09-04T01:00:41.681Z,9.40
2017-09-04T01:03:09.325Z,9.40
2017-09-04T01:05:36.990Z,9.40
2017-09-04T01:08:04.637Z,9.30
2017-09-04T01:10:32.270Z,9.20
2017-09-04T01:12:59.950Z,9.20
2017-09-04T01:15:27.586Z,9.20
2017-09-04T01:17:55.220Z,9.20
2017-09-04T01:20:22.884Z,9.20
2017-09-04T01:22:50.507Z,9.20
2017-09-04T01:25:18.126Z,9.20
2017-09-04T01:27:45.783Z,9.10
2017-09-04T01:30:13.428Z,9.10
2017-09-04T01:32:41.074Z,9.00
2017-09-04T01:35:08.755Z,9.00
2017-09-04T01:37:36.540Z,9.00
2017-09-04T01:40:04.194Z,9.00
2017-09-04T01:42:31.856Z,9.00
2017-09-04T01:44:59.476Z,9.00
2017-09-04T01:47:27.104Z,9.00
2017-09-04T01:49:54.762Z,9.00
2017-09-04T01:52:22.398Z,9.00
2017-09-04T01:54:50.019Z,9.00
2017-09-04T01:57:17.730Z,9.00
2017-09-04T01:59:45.336Z,8.90
2017-09-04T02:02:12.965Z,8.90
2017-09-04T02:04:40.614Z,8.90
2017-09-04T02:07:08.244Z,8.80
2017-09-04T02:09:35.921Z,8.80
2017-09-04T02:12:03.579Z,8.80
2017-09-04T02:14:31.216Z,8.80
2017-09-04T02:16:58.830Z,8.80
2017-09-04T02:19:26.533Z,8.80
2017-09-04T02:21:54.157Z,8.70
2017-09-04T02:24:21.789Z,8.70
2017-09-04T02:26:49.448Z,8.60
2017-09-04T02:29:17.083Z,8.60
2017-09-04T02:31:44.729Z,8.50
2017-09-04T02:34:12.383Z,8.50
2017-09-04T02:36:40.023Z,8.50
2017-09-04T02:39:07.662Z,8.50
2017-09-04T02:41:35.343Z,8.50
2017-09-04T02:44:03.009Z,8.60
2017-09-04T02:46:30.657Z,8.50
2017-09-04T02:48:58.312Z,8.40
2017-09-04T02:51:25.964Z,8.40
2017-09-04T02:53:53.593Z,8.40
2017-09-04T02:56:21.261Z,8.40
2017-09-04T02:58:48.909Z,8.30
2017-09-04T03:01:16.557Z,8.40
2017-09-04T03:03:44.218Z,8.30
2017-09-04T03:06:11.857Z,8.30
2017-09-04T03:08:39.505Z,8.30
2017-09-04T03:11:07.205Z,8.30
2017-09-04T03:13:34.823Z,8.30
2017-09-04T03:16:02.469Z,8.30
2017-09-04T03:18:30.134Z,8.30
2017-09-04T03:20:57.765Z,8.30
2017-09-04T03:23:25.409Z,8.20
2017-09-04T03:25:53.061Z,8.30
2017-09-04T03:28:20.683Z,8.30
2017-09-04T03:30:48.300Z,8.30
2017-09-04T03:33:15.973Z,8.20
2017-09-04T03:35:43.640Z,8.20
2017-09-04T03:38:11.275Z,8.20
2017-09-04T03:40:38.941Z,8.20
2017-09-04T03:43:06.603Z,8.30
2017-09-04T03:45:34.237Z,8.20
2017-09-04T03:48:01.905Z,8.20
2017-09-04T03:50:29.537Z,8.20
2017-09-04T03:52:57.189Z,8.10
2017-09-04T03:55:24.862Z,8.10
2017-09-04T03:57:52.502Z,8.10
2017-09-04T04:00:20.133Z,8.10
2017-09-04T04:02:47.788Z,8.00
2017-09-04T04:05:15.422Z,8.00
2017-09-04T04:07:43.064Z,8.00
2017-09-04T04:10:10.723Z,7.90
2017-09-04T04:12:38.368Z,8.00
2017-09-04T04:15:06.067Z,8.00
2017-09-04T04:17:33.734Z,8.10
2017-09-04T04:20:01.395Z,7.90
2017-09-04T04:22:29.041Z,8.00
2017-09-04T04:24:56.696Z,7.90
2017-09-04T04:27:24.332Z,7.90
2017-09-04T04:29:51.974Z,7.80
2017-09-04T04:32:19.645Z,7.90
2017-09-04T04:34:47.296Z,7.90
2017-09-04T04:37:14.923Z,7.90
2017-09-04T04:39:42.583Z,7.90
2017-09-04T04:42:10.224Z,7.90
2017-09-04T04:44:37.899Z,7.90
2017-09-04T04:47:05.611Z,7.90
2017-09-04T04:49:33.252Z,7.90
2017-09-04T04:52:00.898Z,7.80
2017-09-04T04:54:28.577Z,7.90
2017-09-04T04:56:56.286Z,7.90
2017-09-04T04:59:23.916Z,7.90
2017-09-04T05:01:51.610Z,7.90
2017-09-04T05:04:19.235Z,8.00
2017-09-04T05:06:46.885Z,8.00
2017-09-04T05:09:14.561Z,8.00
2017-09-04T05:11:42.199Z,8.00
2017-09-04T05:14:10.355Z,8.10
2017-09-04T05:16:38.017Z,8.10
2017-09-04T05:19:05.664Z,8.20
2017-09-04T05:21:33.337Z,8.20
2017-09-04T05:24:01.034Z,8.40
2017-09-04T05:26:28.665Z,8.60
2017-09-04T05:28:56.299Z,8.70
2017-09-04T05:31:23.970Z,8.80
2017-09-04T05:33:51.604Z,9.00
2017-09-04T05:36:19.237Z,9.20
2017-09-04T05:38:46.900Z,9.40
2017-09-04T05:41:14.541Z,9.50
2017-09-04T05:43:42.704Z,9.50
2017-09-04T05:46:10.364Z,9.70
2017-09-04T05:48:38.001Z,9.80
2017-09-04T05:51:05.657Z,9.90
2017-09-04T05:53:33.355Z,10.10
2017-09-04T05:56:00.989Z,10.20
2017-09-04T05:58:28.608Z,10.30
2017-09-04T06:00:56.283Z,10.40
2017-09-04T06:03:23.929Z,10.60
2017-09-04T06:05:51.555Z,10.90
2017-09-04T06:08:19.220Z,11.10
2017-09-04T06:10:46.860Z,11.30
2017-09-04T06:13:14.505Z,11.60
2017-09-04T06:15:42.167Z,11.70
2017-09-04T06:18:09.802Z,12.00
2017-09-04T06:20:37.445Z,12.50
2017-09-04T06:23:05.122Z,12.70
2017-09-04T06:25:32.749Z,12.90
2017-09-04T06:28:00.416Z,13.20
2017-09-04T06:30:28.076Z,13.30
2017-09-04T06:32:55.703Z,13.50
2017-09-04T06:35:23.351Z,13.60
2017-09-04T06:37:51.028Z,13.70
2017-09-04T06:40:18.665Z,14.10
2017-09-04T06:42:46.309Z,14.50
2017-09-04T06:45:13.967Z,15.30
2017-09-04T06:47:41.608Z,15.80
2017-09-04T06:50:09.231Z,16.50
2017-09-04T06:52:36.885Z,16.90
2017-09-04T06:55:04.489Z,17.40
2017-09-04T06:57:32.099Z,18.20
2017-09-04T06:59:59.745Z,19.00
2017-09-04T07:02:27.363Z,19.40
2017-09-04T07:04:54.990Z,20.00
2017-09-04T07:07:22.662Z,20.70
2017-09-04T07:09:50.269Z,20.70
2017-09-04T07:12:17.872Z,21.30
2017-09-04T07:14:45.512Z,22.10
2017-09-04T07:17:13.120Z,22.30
2017-09-04T07:19:40.741Z,22.10
2017-09-04T07:22:08.377Z,22.30
2017-09-04T07:24:36.069Z,22.50
2017-09-04T07:27:03.688Z,22.20
2017-09-04T07:29:31.350Z,22.60
2017-09-04T07:31:58.960Z,22.60
2017-09-04T07:34:26.589Z,22.70
2017-09-04T07:36:54.343Z,23.00
2017-09-04T07:39:21.952Z,23.20
2017-09-04T07:41:49.559Z,24.00
2017-09-04T07:44:17.202Z,23.90
2017-09-04T07:46:44.800Z,24.10
2017-09-04T07:49:12.403Z,23.30
2017-09-04T07:51:40.050Z,23.50
2017-09-04T07:54:07.669Z,23.50
2017-09-04T07:56:35.296Z,22.60
2017-09-04T07:59:02.924Z,23.10
2017-09-04T08:01:30.541Z,23.50
2017-09-04T08:03:58.164Z,23.90
2017-09-04T08:06:25.811Z,24.60
2017-09-04T08:08:53.427Z,25.50
2017-09-04T08:11:21.060Z,25.60
2017-09-04T08:13:48.704Z,25.50
2017-09-04T08:16:16.307Z,25.60
2017-09-04T08:18:43.907Z,25.40
2017-09-04T08:21:11.556Z,25.10
2017-09-04T08:23:39.168Z,25.90
2017-09-04T08:26:06.792Z,25.30
2017-09-04T08:28:34.441Z,25.30
2017-09-04T08:31:02.053Z,25.40
2017-09-04T08:33:29.652Z,25.50
2017-09-04T08:35:57.304Z,26.20
2017-09-04T08:38:24.908Z,25.40
2017-09-04T08:40:52.518Z,25.40
2017-09-04T08:43:20.164Z,25.60
2017-09-04T08:45:47.769Z,25.90
2017-09-04T08:48:15.389Z,25.90
2017-09-04T08:50:43.026Z,26.40
2017-09-04T08:53:10.631Z,26.60
2017-09-04T08:55:38.246Z,25.70
2017-09-04T08:58:05.896Z,25.80
2017-09-04T09:00:33.517Z,25.80
2017-09-04T09:03:01.127Z,25.60
2017-09-04T09:05:28.760Z,26.00
2017-09-04T09:07:56.394Z,26.50
2017-09-04T09:10:24.018Z,26.70
2017-09-04T09:12:51.666Z,26.50
2017-09-04T09:15:19.289Z,26.60
2017-09-04T09:17:46.894Z,26.70
2017-09-04T09:20:14.537Z,27.90
2017-09-04T09:22:42.146Z,27.50
2017-09-04T09:25:09.752Z,27.60
2017-09-04T09:27:37.396Z,28.00
2017-09-04T09:30:05.002Z,28.40
2017-09-04T09:32:32.635Z,28.00
2017-09-04T09:35:00.268Z,27.20
2017-09-04T09:37:27.877Z,27.60
2017-09-04T09:39:55.485Z,27.20
2017-09-04T09:42:23.154Z,26.90
2017-09-04T09:44:50.760Z,27.50
2017-09-04T09:47:18.374Z,27.30
2017-09-04T09:49:46.026Z,26.60
2017-09-04T09:52:13.645Z,26.50
2017-09-04T09:54:41.253Z,26.10
2017-09-04T09:57:08.893Z,26.40
2017-09-04T09:59:36.535Z,27.10
2017-09-04T10:02:04.182Z,27.00
2017-09-04T10:04:31.815Z,27.70
2017-09-04T10:06:59.424Z,27.20
2017-09-04T10:09:27.037Z,27.10
2017-09-04T10:11:54.682Z,27.30
2017-09-04T10:14:22.289Z,26.90
2017-09-04T10:16:49.907Z,27.30
2017-09-04T10:19:17.551Z,27.00
2017-09-04T10:21:45.173Z,26.40
2017-09-04T10:24:12.793Z,26.20
2017-09-04T10:26:40.432Z,26.00
2017-09-04T10:29:08.059Z,25.20
2017-09-04T10:31:35.685Z,24.20
2017-09-04T10:34:03.377Z,24.00
2017-09-04T10:36:30.993Z,24.60
2017-09-04T10:38:58.613Z,24.20
2017-09-04T10:41:26.262Z,24.60
2017-09-04T10:43:53.891Z,24.90
2017-09-04T10:46:21.513Z,25.40
2017-09-04T10:48:49.163Z,25.70
2017-09-04T10:51:16.767Z,26.00
2017-09-04T10:53:44.368Z,25.40
2017-09-04T10:56:12.019Z,24.30
2017-09-04T10:58:39.643Z,23.50
2017-09-04T11:01:07.250Z,23.50
2017-09-04T11:03:34.903Z,23.50
2017-09-04T11:06:02.534Z,23.50
2017-09-04T11:08:30.149Z,23.40
2017-09-04T11:10:57.782Z,23.00
2017-09-04T11:13:25.400Z,22.70
2017-09-04T11:15:53.013Z,22.10
2017-09-04T11:18:20.669Z,21.70
2017-09-04T11:20:48.287Z,21.60
2017-09-04T11:23:15.910Z,21.50
2017-09-04T11:25:43.557Z,21.40
2017-09-04T11:28:11.188Z,21.10
2017-09-04T11:30:38.802Z,20.80
2017-09-04T11:33:06.455Z,20.60
2017-09-04T11:35:34.067Z,20.70
2017-09-04T11:38:01.723Z,20.50
2017-09-04T11:40:29.370Z,20.40
2017-09-04T11:42:56.977Z,20.30
2017-09-04T11:45:24.583Z,20.40
2017-09-04T11:47:52.232Z,20.30
2017-09-04T11:50:19.841Z,20.30
2017-09-04T11:52:47.439Z,20.10
2017-09-04T11:55:15.436Z,20.00
2017-09-04T11:57:43.060Z,19.90
2017-09-04T12:00:10.691Z,20.00
2017-09-04T12:02:38.369Z,20.10
2017-09-04T12:05:06.000Z,20.30
2017-09-04T12:07:33.608Z,20.20
2017-09-04T12:10:01.293Z,20.20
2017-09-04T12:12:28.912Z,20.20
2017-09-04T12:14:56.552Z,20.30
2017-09-04T12:17:24.196Z,20.30
2017-09-04T12:19:51.814Z,20.50
2017-09-04T12:22:19.415Z,20.70
2017-09-04T12:24:47.059Z,20.90
2017-09-04T12:27:14.671Z,20.90
2017-09-04T12:29:42.292Z,20.90
2017-09-04T12:32:09.941Z,20.90
2017-09-04T12:34:37.558Z,21.00
2017-09-04T12:37:05.218Z,21.00
2017-09-04T12:39:32.860Z,20.90
2017-09-04T12:42:00.475Z,20.90
2017-09-04T12:44:29.283Z,21.00
2017-09-04T12:46:56.934Z,21.20
2017-09-04T12:49:24.551Z,21.20
2017-09-04T12:51:52.161Z,21.20
2017-09-04T12:54:19.925Z,21.00
2017-09-04T12:56:47.586Z,21.00
2017-09-04T12:59:15.225Z,20.90
2017-09-04T13:01:42.883Z,20.80
2017-09-04T13:04:10.488Z,21.10
2017-09-04T13:06:38.096Z,21.60
2017-09-04T13:09:05.773Z,21.90
2017-09-04T13:11:39.084Z,22.30
2017-09-04T13:17:27.868Z,22.90
2017-09-04T13:20:01.155Z,23.30
2017-09-04T13:22:34.531Z,23.30
2017-09-04T13:25:07.764Z,23.00
2017-09-04T13:27:41.009Z,22.80
2017-09-04T13:30:14.381Z,22.60
2017-09-04T13:32:52.512Z,22.70
2017-09-04T13:35:25.742Z,22.60
2017-09-04T13:37:58.267Z,23.10
2017-09-04T13:40:31.664Z,23.50
2017-09-04T13:46:02.879Z,24.60
2017-09-04T13:48:36.268Z,24.80
2017-09-04T13:51:09.542Z,25.60
2017-09-04T13:53:42.812Z,26.00
2017-09-04T13:59:17.365Z,25.50
2017-09-04T14:04:48.623Z,25.80
2017-09-04T14:07:18.742Z,25.80
2017-09-04T14:09:46.948Z,25.80
2017-09-04T14:15:31.572Z,24.80
2017-09-04T14:18:11.731Z,24.90
2017-09-04T14:20:39.340Z,24.60
2017-09-04T14:23:06.945Z,24.30
2017-09-04T14:25:34.606Z,24.00
2017-09-04T14:28:02.234Z,23.70
2017-09-04T14:30:29.850Z,23.20
2017-09-04T14:32:57.491Z,22.80
2017-09-04T14:35:25.107Z,22.50
2017-09-04T14:37:52.737Z,22.20
2017-09-04T14:40:22.848Z,21.90
2017-09-04T14:42:50.911Z,21.60
2017-09-04T14:45:25.114Z,21.40
2017-09-04T14:47:57.262Z,21.20
2017-09-04T14:50:24.899Z,21.00
2017-09-04T14:52:52.538Z,20.90
2017-09-04T14:55:20.164Z,20.70
2017-09-04T14:57:47.827Z,20.60
2017-09-04T15:00:15.458Z,20.60
2017-09-04T15:02:43.080Z,20.60
2017-09-04T15:05:10.728Z,20.50
2017-09-04T15:07:38.340Z,20.50
2017-09-04T15:10:05.964Z,20.40
2017-09-04T15:12:33.621Z,20.40
2017-09-04T15:15:01.246Z,20.40
2017-09-04T15:17:28.864Z,20.30
2017-09-04T15:19:56.549Z,20.30
2017-09-04T15:25:27.214Z,20.20
2017-09-04T15:27:54.819Z,20.10
2017-09-04T15:30:22.441Z,20.10
2017-09-04T15:32:50.040Z,20.10
2017-09-04T15:35:17.680Z,20.10
2017-09-04T15:37:45.285Z,20.10
2017-09-04T15:40:12.884Z,20.00
2017-09-04T15:42:41.507Z,20.00
2017-09-04T15:45:09.218Z,19.90
2017-09-04T15:47:36.856Z,19.90
2017-09-04T15:50:04.459Z,19.80
2017-09-04T15:52:32.069Z,19.80
2017-09-04T15:54:59.701Z,19.80
2017-09-04T15:57:27.388Z,19.80
2017-09-04T15:59:55.056Z,19.80
2017-09-04T16:02:22.677Z,19.70
2017-09-04T16:04:50.297Z,19.70
2017-09-04T16:07:28.758Z,19.60
2017-09-04T16:09:56.372Z,19.60
2017-09-04T16:15:33.210Z,19.40
2017-09-04T16:21:10.027Z,19.40
2017-09-04T16:23:41.316Z,19.40
2017-09-04T16:26:10.436Z,19.30
2017-09-04T16:28:38.834Z,19.30
2017-09-04T16:31:12.064Z,19.30
2017-09-04T16:36:44.714Z,19.20
2017-09-04T16:39:18.116Z,19.20
2017-09-04T16:44:43.962Z,19.10
2017-09-04T16:47:17.177Z,19.20
2017-09-04T16:53:08.647Z,19.20
2017-09-04T16:55:57.156Z,19.10
2017-09-04T16:58:24.757Z,19.10
2017-09-04T17:00:52.372Z,19.00
2017-09-04T17:03:20.003Z,19.00
2017-09-04T17:05:47.630Z,18.90
2017-09-04T17:08:17.078Z,18.90
2017-09-04T17:10:45.492Z,18.90
2017-09-04T17:13:13.110Z,18.80
2017-09-04T17:15:44.356Z,18.80
2017-09-04T17:18:25.701Z,18.70
2017-09-04T17:21:03.248Z,18.70
2017-09-04T17:23:31.801Z,18.60
2017-09-04T17:25:59.413Z,18.50
2017-09-04T17:28:27.048Z,18.40
2017-09-04T17:30:54.665Z,18.30
2017-09-04T17:33:22.319Z,18.20
2017-09-04T17:35:49.954Z,18.10
2017-09-04T17:38:17.564Z,17.90
2017-09-04T17:40:45.215Z,17.80
2017-09-04T17:43:12.849Z,17.70
2017-09-04T17:45:40.486Z,17.50
2017-09-04T17:48:08.131Z,17.40
2017-09-04T17:50:37.013Z,17.30
2017-09-04T17:53:15.388Z,17.20
2017-09-04T17:55:52.191Z,17.00
2017-09-04T17:58:31.105Z,16.90
2017-09-04T18:01:13.612Z,16.70
2017-09-04T18:03:49.547Z,16.60
2017-09-04T18:06:19.815Z,16.50
2017-09-04T18:08:48.860Z,16.30
2017-09-04T18:11:16.503Z,16.30
2017-09-04T18:13:44.134Z,16.20
2017-09-04T18:16:11.788Z,16.20
2017-09-04T18:18:39.425Z,16.10
2017-09-04T18:21:07.109Z,16.10
2017-09-04T18:23:34.749Z,16.00
2017-09-04T18:26:04.743Z,15.90
2017-09-04T18:28:32.466Z,15.90
2017-09-04T18:31:00.139Z,15.80
2017-09-04T18:33:27.862Z,15.80
2017-09-04T18:35:55.509Z,15.70
2017-09-04T18:38:23.141Z,15.60
2017-09-04T18:40:50.779Z,15.50
2017-09-04T18:43:18.412Z,15.40
2017-09-04T18:45:46.067Z,15.30
2017-09-04T18:48:13.695Z,15.30
2017-09-04T18:50:41.333Z,15.10
2017-09-04T18:53:08.981Z,15.00
2017-09-04T18:55:36.615Z,14.90
2017-09-04T18:58:04.281Z,14.90
2017-09-04T19:00:31.995Z,14.70
2017-09-04T19:02:59.697Z,14.70
2017-09-04T19:05:27.368Z,14.60
2017-09-04T19:07:55.008Z,14.60
2017-09-04T19:10:22.677Z,14.50
2017-09-04T19:12:50.309Z,14.60
2017-09-04T19:15:17.945Z,14.60
2017-09-04T19:17:45.595Z,14.60
2017-09-04T19:20:13.218Z,14.50
2017-09-04T19:22:40.885Z,14.50
2017-09-04T19:25:08.523Z,14.50
2017-09-04T19:27:36.156Z,14.50
2017-09-04T19:30:03.827Z,14.50
2017-09-04T19:32:31.467Z,14.50
2017-09-04T19:34:59.141Z,14.60
2017-09-04T19:37:26.766Z,14.60
2017-09-04T19:39:54.401Z,14.60
2017-09-04T19:42:22.064Z,14.70
2017-09-04T19:44:49.703Z,14.70
2017-09-04T19:47:17.364Z,14.80
2017-09-04T19:49:45.034Z,14.80
2017-09-04T19:52:12.663Z,14.80
2017-09-04T19:54:40.604Z,14.70
2017-09-04T19:57:08.232Z,14.70
2017-09-04T19:59:35.899Z,14.70
2017-09-04T20:02:03.547Z,14.70
2017-09-04T20:04:31.192Z,14.60
2017-09-04T20:06:59.780Z,14.60
2017-09-04T20:09:27.457Z,14.50
2017-09-04T20:11:55.145Z,14.50
2017-09-04T20:14:22.768Z,14.40
2017-09-04T20:16:50.398Z,14.20
2017-09-04T20:19:18.049Z,14.20
2017-09-04T20:21:45.667Z,14.00
2017-09-04T20:24:13.327Z,13.90
2017-09-04T20:26:40.968Z,13.80
2017-09-04T20:29:08.591Z,13.70
2017-09-04T20:31:36.245Z,13.60
2017-09-04T20:34:04.128Z,13.50
2017-09-04T20:36:31.902Z,13.40
2017-09-04T20:38:59.556Z,13.30
2017-09-04T20:41:27.183Z,13.20
2017-09-04T20:43:54.827Z,13.10
2017-09-04T20:46:22.462Z,13.00
2017-09-04T20:48:50.143Z,13.00
2017-09-04T20:51:17.795Z,12.90
2017-09-04T20:53:45.507Z,12.80
2017-09-04T20:56:13.284Z,12.70
2017-09-04T20:58:41.002Z,12.60
2017-09-04T21:01:08.797Z,12.60
2017-09-04T21:03:36.447Z,12.60
2017-09-04T21:06:04.085Z,12.60
2017-09-04T21:08:31.741Z,12.50
2017-09-04T21:10:59.367Z,12.50
2017-09-04T21:13:27.028Z,12.40
2017-09-04T21:15:54.785Z,12.30
2017-09-04T21:18:22.427Z,12.30
2017-09-04T21:20:50.082Z,12.30
2017-09-04T21:23:17.707Z,12.20
2017-09-04T21:25:45.375Z,12.20
2017-09-04T21:28:13.036Z,12.10
2017-09-04T21:30:40.673Z,12.10
2017-09-04T21:33:08.315Z,12.10
2017-09-04T21:35:35.953Z,11.90
2017-09-04T21:38:03.620Z,11.90
2017-09-04T21:40:31.244Z,12.00
2017-09-04T21:42:58.879Z,11.90
2017-09-04T21:45:26.533Z,11.80
2017-09-04T21:47:54.155Z,11.70
2017-09-04T21:50:21.816Z,11.70
2017-09-04T21:52:49.444Z,11.70
2017-09-04T21:55:17.068Z,11.60
2017-09-04T21:57:44.715Z,11.60
2017-09-04T22:00:12.342Z,11.50
2017-09-04T22:02:40.003Z,11.50
2017-09-04T22:05:07.633Z,11.40
2017-09-04T22:07:35.263Z,11.40
2017-09-04T22:10:02.921Z,11.30
2017-09-04T22:12:30.608Z,11.30
2017-09-04T22:14:58.285Z,11.30
2017-09-04T22:17:25.907Z,11.20
2017-09-04T22:19:53.532Z,11.20
2017-09-04T22:22:21.199Z,11.10
2017-09-04T22:24:48.836Z,11.10
2017-09-04T22:27:16.493Z,11.10
2017-09-04T22:29:44.129Z,11.00
2017-09-04T22:32:11.747Z,11.00
2017-09-04T22:34:39.401Z,11.10
2017-09-04T22:37:07.028Z,11.00
2017-09-04T22:39:34.709Z,11.00
2017-09-04T22:42:02.335Z,10.90
2017-09-04T22:44:29.968Z,10.80
2017-09-04T22:46:57.619Z,10.80
2017-09-04T22:49:25.249Z,10.80
2017-09-04T22:51:52.907Z,10.80
2017-09-04T22:54:20.532Z,10.70
2017-09-04T22:56:48.169Z,10.70
2017-09-04T22:59:16.279Z,10.70
2017-09-04T23:01:43.907Z,10.60
2017-09-04T23:04:12.137Z,10.70
2017-09-04T23:06:39.768Z,10.70
2017-09-04T23:09:07.400Z,10.70
2017-09-04T23:11:35.062Z,10.70
2017-09-04T23:14:02.696Z,10.80
2017-09-04T23:16:30.363Z,10.80
2017-09-04T23:18:58.001Z,10.80
2017-09-04T23:21:25.641Z,10.70
2017-09-04T23:23:53.299Z,10.70
2017-09-04T23:26:20.927Z,10.70
2017-09-04T23:28:48.598Z,10.70
2017-09-04T23:31:16.228Z,10.70
2017-09-04T23:33:43.861Z,10.70
2017-09-04T23:36:11.506Z,10.70
2017-09-04T23:38:39.134Z,10.70
2017-09-04T23:41:06.791Z,10.70
2017-09-04T23:43:34.423Z,10.70
2017-09-04T23:46:02.062Z,10.60
2017-09-04T23:48:29.717Z,10.60
2017-09-04T23:50:57.349Z,10.50
2017-09-04T23:53:25.020Z,10.50
2017-09-04T23:55:52.657Z,10.60
2017-09-04T23:58:20.285Z,10.50
